sensor_id;sensor_type;location;lat;lon;timestamp;P1;durP1;ratioP1;P2;durP2;ratioP2
11827;SDS011;5971;49.646;8.568;2023-04-15T00:02:58;4.30;;;3.38;;
11827;SDS011;5971;49.646;8.568;2023-04-15T00:05:59;3.47;;;2.15;;
11827;SDS011;5971;49.646;8.568;2023-04-15T00:09:01;3.20;;;2.67;;
11827;SDS011;5971;49.646;8.568;2023-04-15T00:12:04;6.22;;;3.25;;
11827;SDS011;5971;49.646;8.568;2023-04-15T00:15:05;5.47;;;2.05;;
11827;SDS011;5971;49.646;8.568;2023-04-15T00:18:08;5.28;;;2.65;;
11827;SDS011;5971;49.646;8.568;2023-04-15T00:21:09;5.20;;;2.55;;
11827;SDS011;5971;49.646;8.568;2023-04-15T00:24:11;4.63;;;2.83;;
11827;SDS011;5971;49.646;8.568;2023-04-15T00:27:12;3.60;;;2.88;;
11827;SDS011;5971;49.646;8.568;2023-04-15T00:30:13;4.22;;;2.92;;
11827;SDS011;5971;49.646;8.568;2023-04-15T00:33:15;5.35;;;2.90;;
11827;SDS011;5971;49.646;8.568;2023-04-15T00:36:16;9.55;;;3.22;;
11827;SDS011;5971;49.646;8.568;2023-04-15T00:39:17;4.30;;;2.42;;
11827;SDS011;5971;49.646;8.568;2023-04-15T00:42:19;3.20;;;2.85;;
11827;SDS011;5971;49.646;8.568;2023-04-15T00:45:21;2.85;;;2.63;;
11827;SDS011;5971;49.646;8.568;2023-04-15T00:48:23;4.28;;;2.25;;
11827;SDS011;5971;49.646;8.568;2023-04-15T00:51:24;4.63;;;3.05;;
11827;SDS011;5971;49.646;8.568;2023-04-15T00:54:26;5.30;;;3.40;;
11827;SDS011;5971;49.646;8.568;2023-04-15T00:57:27;4.05;;;2.80;;
11827;SDS011;5971;49.646;8.568;2023-04-15T01:00:29;7.03;;;3.50;;
11827;SDS011;5971;49.646;8.568;2023-04-15T01:03:31;3.63;;;2.83;;
11827;SDS011;5971;49.646;8.568;2023-04-15T01:06:32;4.90;;;4.47;;
11827;SDS011;5971;49.646;8.568;2023-04-15T01:09:34;3.00;;;2.38;;
11827;SDS011;5971;49.646;8.568;2023-04-15T01:12:35;4.10;;;2.30;;
11827;SDS011;5971;49.646;8.568;2023-04-15T01:15:37;4.30;;;3.13;;
11827;SDS011;5971;49.646;8.568;2023-04-15T01:18:39;4.30;;;3.15;;
11827;SDS011;5971;49.646;8.568;2023-04-15T01:21:41;5.72;;;3.30;;
11827;SDS011;5971;49.646;8.568;2023-04-15T01:24:45;4.03;;;2.50;;
11827;SDS011;5971;49.646;8.568;2023-04-15T01:27:52;3.88;;;2.80;;
11827;SDS011;5971;49.646;8.568;2023-04-15T01:31:12;3.78;;;2.92;;
11827;SDS011;5971;49.646;8.568;2023-04-15T01:34:14;3.80;;;2.75;;
11827;SDS011;5971;49.646;8.568;2023-04-15T01:37:16;4.15;;;2.63;;
11827;SDS011;5971;49.646;8.568;2023-04-15T01:40:17;3.85;;;3.22;;
11827;SDS011;5971;49.646;8.568;2023-04-15T01:43:18;3.63;;;2.55;;
11827;SDS011;5971;49.646;8.568;2023-04-15T01:46:20;3.58;;;3.13;;
11827;SDS011;5971;49.646;8.568;2023-04-15T01:49:21;4.82;;;2.58;;
11827;SDS011;5971;49.646;8.568;2023-04-15T01:52:23;3.67;;;2.75;;
11827;SDS011;5971;49.646;8.568;2023-04-15T01:55:24;4.10;;;3.00;;
11827;SDS011;5971;49.646;8.568;2023-04-15T01:58:26;2.75;;;1.50;;
11827;SDS011;5971;49.646;8.568;2023-04-15T02:01:27;3.05;;;2.72;;
11827;SDS011;5971;49.646;8.568;2023-04-15T02:04:28;2.95;;;2.22;;
11827;SDS011;5971;49.646;8.568;2023-04-15T02:07:30;3.47;;;2.95;;
11827;SDS011;5971;49.646;8.568;2023-04-15T02:10:32;4.32;;;2.50;;
11827;SDS011;5971;49.646;8.568;2023-04-15T02:13:33;2.55;;;2.35;;
11827;SDS011;5971;49.646;8.568;2023-04-15T02:16:35;4.70;;;2.80;;
11827;SDS011;5971;49.646;8.568;2023-04-15T02:19:36;2.30;;;1.55;;
11827;SDS011;5971;49.646;8.568;2023-04-15T02:22:39;7.68;;;3.38;;
11827;SDS011;5971;49.646;8.568;2023-04-15T02:25:40;4.45;;;3.40;;
11827;SDS011;5971;49.646;8.568;2023-04-15T02:28:41;5.22;;;4.82;;
11827;SDS011;5971;49.646;8.568;2023-04-15T02:31:43;4.47;;;3.13;;
11827;SDS011;5971;49.646;8.568;2023-04-15T02:34:45;4.88;;;2.65;;
11827;SDS011;5971;49.646;8.568;2023-04-15T02:37:46;6.03;;;3.78;;
11827;SDS011;5971;49.646;8.568;2023-04-15T02:40:47;3.30;;;2.30;;
11827;SDS011;5971;49.646;8.568;2023-04-15T02:43:50;4.60;;;3.95;;
11827;SDS011;5971;49.646;8.568;2023-04-15T02:46:52;5.93;;;3.40;;
11827;SDS011;5971;49.646;8.568;2023-04-15T02:49:54;4.57;;;3.67;;
11827;SDS011;5971;49.646;8.568;2023-04-15T02:52:56;3.78;;;2.72;;
11827;SDS011;5971;49.646;8.568;2023-04-15T02:55:57;5.50;;;3.05;;
11827;SDS011;5971;49.646;8.568;2023-04-15T02:59:00;3.92;;;3.05;;
11827;SDS011;5971;49.646;8.568;2023-04-15T03:02:02;5.28;;;3.92;;
11827;SDS011;5971;49.646;8.568;2023-04-15T03:05:04;4.72;;;3.38;;
11827;SDS011;5971;49.646;8.568;2023-04-15T03:08:06;4.03;;;2.83;;
11827;SDS011;5971;49.646;8.568;2023-04-15T03:11:07;3.30;;;2.80;;
11827;SDS011;5971;49.646;8.568;2023-04-15T03:14:08;5.13;;;3.40;;
11827;SDS011;5971;49.646;8.568;2023-04-15T03:17:10;5.35;;;2.95;;
11827;SDS011;5971;49.646;8.568;2023-04-15T03:20:11;5.72;;;2.80;;
11827;SDS011;5971;49.646;8.568;2023-04-15T03:23:13;8.85;;;3.30;;
11827;SDS011;5971;49.646;8.568;2023-04-15T03:26:27;5.07;;;2.97;;
11827;SDS011;5971;49.646;8.568;2023-04-15T03:29:29;6.40;;;2.83;;
11827;SDS011;5971;49.646;8.568;2023-04-15T03:32:30;4.63;;;3.70;;
11827;SDS011;5971;49.646;8.568;2023-04-15T03:35:32;2.83;;;2.17;;
11827;SDS011;5971;49.646;8.568;2023-04-15T03:38:33;4.82;;;3.20;;
11827;SDS011;5971;49.646;8.568;2023-04-15T03:41:35;5.25;;;2.67;;
11827;SDS011;5971;49.646;8.568;2023-04-15T03:44:36;5.63;;;2.80;;
11827;SDS011;5971;49.646;8.568;2023-04-15T03:47:38;3.55;;;2.17;;
11827;SDS011;5971;49.646;8.568;2023-04-15T03:50:39;4.65;;;2.55;;
11827;SDS011;5971;49.646;8.568;2023-04-15T03:53:41;4.20;;;2.45;;
11827;SDS011;5971;49.646;8.568;2023-04-15T03:56:42;2.83;;;1.92;;
11827;SDS011;5971;49.646;8.568;2023-04-15T03:59:43;4.75;;;3.08;;
11827;SDS011;5971;49.646;8.568;2023-04-15T04:02:45;4.03;;;3.17;;
11827;SDS011;5971;49.646;8.568;2023-04-15T04:05:46;4.88;;;3.00;;
11827;SDS011;5971;49.646;8.568;2023-04-15T04:08:47;3.88;;;2.83;;
11827;SDS011;5971;49.646;8.568;2023-04-15T04:11:49;5.85;;;3.50;;
11827;SDS011;5971;49.646;8.568;2023-04-15T04:14:50;3.40;;;2.65;;
11827;SDS011;5971;49.646;8.568;2023-04-15T04:17:52;4.20;;;2.78;;
11827;SDS011;5971;49.646;8.568;2023-04-15T04:20:53;4.82;;;3.05;;
11827;SDS011;5971;49.646;8.568;2023-04-15T04:23:55;4.25;;;3.13;;
11827;SDS011;5971;49.646;8.568;2023-04-15T04:26:56;4.47;;;3.17;;
11827;SDS011;5971;49.646;8.568;2023-04-15T04:29:58;4.40;;;3.88;;
11827;SDS011;5971;49.646;8.568;2023-04-15T04:32:59;6.13;;;3.00;;
11827;SDS011;5971;49.646;8.568;2023-04-15T04:36:00;3.42;;;2.95;;
11827;SDS011;5971;49.646;8.568;2023-04-15T04:39:02;6.55;;;3.65;;
11827;SDS011;5971;49.646;8.568;2023-04-15T04:42:04;4.70;;;3.17;;
11827;SDS011;5971;49.646;8.568;2023-04-15T04:45:05;4.45;;;3.13;;
11827;SDS011;5971;49.646;8.568;2023-04-15T04:48:07;4.32;;;3.40;;
11827;SDS011;5971;49.646;8.568;2023-04-15T04:51:10;3.35;;;3.00;;
11827;SDS011;5971;49.646;8.568;2023-04-15T04:54:11;5.90;;;3.70;;
11827;SDS011;5971;49.646;8.568;2023-04-15T04:57:13;6.03;;;3.83;;
11827;SDS011;5971;49.646;8.568;2023-04-15T05:00:14;6.32;;;3.85;;
11827;SDS011;5971;49.646;8.568;2023-04-15T05:03:15;5.30;;;3.80;;
11827;SDS011;5971;49.646;8.568;2023-04-15T05:06:17;5.90;;;4.95;;
11827;SDS011;5971;49.646;8.568;2023-04-15T05:09:18;5.05;;;4.20;;
11827;SDS011;5971;49.646;8.568;2023-04-15T05:12:20;3.60;;;3.25;;
11827;SDS011;5971;49.646;8.568;2023-04-15T05:15:21;5.50;;;3.90;;
11827;SDS011;5971;49.646;8.568;2023-04-15T05:18:23;4.30;;;2.97;;
11827;SDS011;5971;49.646;8.568;2023-04-15T05:21:24;5.03;;;3.42;;
11827;SDS011;5971;49.646;8.568;2023-04-15T05:24:26;5.63;;;3.67;;
11827;SDS011;5971;49.646;8.568;2023-04-15T05:27:27;6.50;;;3.88;;
11827;SDS011;5971;49.646;8.568;2023-04-15T05:30:28;5.72;;;3.60;;
11827;SDS011;5971;49.646;8.568;2023-04-15T05:33:30;4.47;;;3.00;;
11827;SDS011;5971;49.646;8.568;2023-04-15T05:36:31;5.80;;;3.95;;
11827;SDS011;5971;49.646;8.568;2023-04-15T05:39:33;4.50;;;3.47;;
11827;SDS011;5971;49.646;8.568;2023-04-15T05:42:34;4.88;;;3.13;;
11827;SDS011;5971;49.646;8.568;2023-04-15T05:45:35;8.18;;;3.40;;
11827;SDS011;5971;49.646;8.568;2023-04-15T05:48:37;5.63;;;3.53;;
11827;SDS011;5971;49.646;8.568;2023-04-15T05:51:38;4.50;;;3.30;;
11827;SDS011;5971;49.646;8.568;2023-04-15T05:54:39;4.72;;;3.97;;
11827;SDS011;5971;49.646;8.568;2023-04-15T05:57:41;3.95;;;2.97;;
11827;SDS011;5971;49.646;8.568;2023-04-15T06:00:42;4.90;;;3.72;;
11827;SDS011;5971;49.646;8.568;2023-04-15T06:03:50;7.35;;;3.67;;
11827;SDS011;5971;49.646;8.568;2023-04-15T06:06:52;5.45;;;4.63;;
11827;SDS011;5971;49.646;8.568;2023-04-15T06:09:53;6.72;;;4.30;;
11827;SDS011;5971;49.646;8.568;2023-04-15T06:12:55;7.30;;;4.32;;
11827;SDS011;5971;49.646;8.568;2023-04-15T06:15:56;5.60;;;4.22;;
11827;SDS011;5971;49.646;8.568;2023-04-15T06:18:58;7.30;;;4.53;;
11827;SDS011;5971;49.646;8.568;2023-04-15T06:21:59;10.40;;;5.55;;
11827;SDS011;5971;49.646;8.568;2023-04-15T06:25:01;7.97;;;5.97;;
11827;SDS011;5971;49.646;8.568;2023-04-15T06:28:03;7.72;;;4.63;;
11827;SDS011;5971;49.646;8.568;2023-04-15T06:31:04;10.25;;;5.32;;
11827;SDS011;5971;49.646;8.568;2023-04-15T06:34:06;10.90;;;4.53;;
11827;SDS011;5971;49.646;8.568;2023-04-15T06:37:11;7.00;;;4.60;;
11827;SDS011;5971;49.646;8.568;2023-04-15T06:40:16;6.28;;;3.70;;
11827;SDS011;5971;49.646;8.568;2023-04-15T06:43:18;8.65;;;4.60;;
11827;SDS011;5971;49.646;8.568;2023-04-15T06:46:20;7.30;;;4.03;;
11827;SDS011;5971;49.646;8.568;2023-04-15T06:49:22;8.88;;;4.85;;
11827;SDS011;5971;49.646;8.568;2023-04-15T06:52:26;9.02;;;3.95;;
11827;SDS011;5971;49.646;8.568;2023-04-15T06:55:27;7.65;;;4.10;;
11827;SDS011;5971;49.646;8.568;2023-04-15T06:58:28;5.50;;;4.20;;
11827;SDS011;5971;49.646;8.568;2023-04-15T07:01:34;7.35;;;3.63;;
11827;SDS011;5971;49.646;8.568;2023-04-15T07:04:37;5.07;;;3.53;;
11827;SDS011;5971;49.646;8.568;2023-04-15T07:07:40;7.50;;;4.15;;
11827;SDS011;5971;49.646;8.568;2023-04-15T07:10:42;8.50;;;4.78;;
11827;SDS011;5971;49.646;8.568;2023-04-15T07:13:43;5.78;;;3.38;;
11827;SDS011;5971;49.646;8.568;2023-04-15T07:16:45;9.25;;;3.03;;
11827;SDS011;5971;49.646;8.568;2023-04-15T07:19:46;6.28;;;3.72;;
11827;SDS011;5971;49.646;8.568;2023-04-15T07:22:47;5.70;;;3.58;;
11827;SDS011;5971;49.646;8.568;2023-04-15T07:25:49;6.78;;;3.97;;
11827;SDS011;5971;49.646;8.568;2023-04-15T07:28:51;8.60;;;3.88;;
11827;SDS011;5971;49.646;8.568;2023-04-15T07:31:52;7.43;;;4.82;;
11827;SDS011;5971;49.646;8.568;2023-04-15T07:34:54;6.03;;;3.28;;
11827;SDS011;5971;49.646;8.568;2023-04-15T07:37:55;5.80;;;3.13;;
11827;SDS011;5971;49.646;8.568;2023-04-15T07:40:57;8.77;;;3.60;;
11827;SDS011;5971;49.646;8.568;2023-04-15T07:43:58;5.68;;;3.53;;
11827;SDS011;5971;49.646;8.568;2023-04-15T07:47:00;6.85;;;4.03;;
11827;SDS011;5971;49.646;8.568;2023-04-15T07:50:02;6.47;;;3.05;;
11827;SDS011;5971;49.646;8.568;2023-04-15T07:53:03;5.03;;;3.97;;
11827;SDS011;5971;49.646;8.568;2023-04-15T07:56:05;5.20;;;2.90;;
11827;SDS011;5971;49.646;8.568;2023-04-15T07:59:07;5.25;;;3.03;;
11827;SDS011;5971;49.646;8.568;2023-04-15T08:02:10;5.55;;;3.28;;
11827;SDS011;5971;49.646;8.568;2023-04-15T08:05:12;5.63;;;3.03;;
11827;SDS011;5971;49.646;8.568;2023-04-15T08:08:14;6.68;;;2.72;;
11827;SDS011;5971;49.646;8.568;2023-04-15T08:11:15;3.88;;;2.67;;
11827;SDS011;5971;49.646;8.568;2023-04-15T08:14:17;6.80;;;3.00;;
11827;SDS011;5971;49.646;8.568;2023-04-15T08:17:18;5.00;;;3.40;;
11827;SDS011;5971;49.646;8.568;2023-04-15T08:20:19;5.82;;;2.55;;
11827;SDS011;5971;49.646;8.568;2023-04-15T08:23:21;4.50;;;2.85;;
11827;SDS011;5971;49.646;8.568;2023-04-15T08:26:22;4.72;;;2.63;;
11827;SDS011;5971;49.646;8.568;2023-04-15T08:29:24;4.88;;;2.85;;
11827;SDS011;5971;49.646;8.568;2023-04-15T08:32:25;3.97;;;2.40;;
11827;SDS011;5971;49.646;8.568;2023-04-15T08:35:27;4.22;;;2.03;;
11827;SDS011;5971;49.646;8.568;2023-04-15T08:38:28;5.13;;;2.63;;
11827;SDS011;5971;49.646;8.568;2023-04-15T08:41:39;3.85;;;2.08;;
11827;SDS011;5971;49.646;8.568;2023-04-15T08:44:40;4.25;;;2.08;;
11827;SDS011;5971;49.646;8.568;2023-04-15T08:47:42;3.92;;;2.30;;
11827;SDS011;5971;49.646;8.568;2023-04-15T08:50:45;4.43;;;2.22;;
11827;SDS011;5971;49.646;8.568;2023-04-15T08:53:46;4.72;;;3.08;;
11827;SDS011;5971;49.646;8.568;2023-04-15T08:56:48;5.57;;;2.70;;
11827;SDS011;5971;49.646;8.568;2023-04-15T08:59:49;4.75;;;2.92;;
11827;SDS011;5971;49.646;8.568;2023-04-15T09:02:51;4.70;;;2.83;;
11827;SDS011;5971;49.646;8.568;2023-04-15T09:05:54;4.78;;;3.03;;
11827;SDS011;5971;49.646;8.568;2023-04-15T09:08:55;5.10;;;3.15;;
11827;SDS011;5971;49.646;8.568;2023-04-15T09:11:57;4.72;;;3.20;;
11827;SDS011;5971;49.646;8.568;2023-04-15T09:14:59;5.30;;;3.10;;
11827;SDS011;5971;49.646;8.568;2023-04-15T09:18:00;4.07;;;2.70;;
11827;SDS011;5971;49.646;8.568;2023-04-15T09:24:06;5.57;;;3.47;;
11827;SDS011;5971;49.646;8.568;2023-04-15T09:27:08;5.05;;;4.18;;
11827;SDS011;5971;49.646;8.568;2023-04-15T09:30:09;6.55;;;3.95;;
11827;SDS011;5971;49.646;8.568;2023-04-15T09:33:13;5.10;;;3.22;;
11827;SDS011;5971;49.646;8.568;2023-04-15T09:36:14;5.07;;;3.10;;
11827;SDS011;5971;49.646;8.568;2023-04-15T09:39:16;4.75;;;2.90;;
11827;SDS011;5971;49.646;8.568;2023-04-15T09:42:17;4.70;;;3.25;;
11827;SDS011;5971;49.646;8.568;2023-04-15T09:45:25;4.53;;;2.60;;
11827;SDS011;5971;49.646;8.568;2023-04-15T09:48:29;4.35;;;2.53;;
11827;SDS011;5971;49.646;8.568;2023-04-15T09:51:34;4.63;;;2.55;;
11827;SDS011;5971;49.646;8.568;2023-04-15T09:54:36;4.22;;;2.95;;
11827;SDS011;5971;49.646;8.568;2023-04-15T09:57:38;3.70;;;2.25;;
11827;SDS011;5971;49.646;8.568;2023-04-15T10:00:41;4.18;;;2.33;;
11827;SDS011;5971;49.646;8.568;2023-04-15T10:03:42;3.53;;;2.20;;
11827;SDS011;5971;49.646;8.568;2023-04-15T10:06:44;3.60;;;2.15;;
11827;SDS011;5971;49.646;8.568;2023-04-15T10:09:47;4.00;;;2.15;;
11827;SDS011;5971;49.646;8.568;2023-04-15T10:12:49;3.95;;;2.33;;
11827;SDS011;5971;49.646;8.568;2023-04-15T10:15:59;3.78;;;2.15;;
11827;SDS011;5971;49.646;8.568;2023-04-15T10:19:00;2.80;;;1.70;;
11827;SDS011;5971;49.646;8.568;2023-04-15T10:22:02;4.03;;;2.03;;
11827;SDS011;5971;49.646;8.568;2023-04-15T10:25:03;3.05;;;1.80;;
11827;SDS011;5971;49.646;8.568;2023-04-15T10:28:06;3.15;;;1.73;;
11827;SDS011;5971;49.646;8.568;2023-04-15T10:31:12;4.28;;;2.05;;
11827;SDS011;5971;49.646;8.568;2023-04-15T10:34:15;3.33;;;1.77;;
11827;SDS011;5971;49.646;8.568;2023-04-15T10:37:33;4.32;;;1.95;;
11827;SDS011;5971;49.646;8.568;2023-04-15T10:40:34;3.95;;;1.73;;
11827;SDS011;5971;49.646;8.568;2023-04-15T10:43:36;3.55;;;2.03;;
11827;SDS011;5971;49.646;8.568;2023-04-15T10:46:38;5.53;;;2.20;;
11827;SDS011;5971;49.646;8.568;2023-04-15T10:49:56;3.33;;;1.92;;
11827;SDS011;5971;49.646;8.568;2023-04-15T10:53:02;2.97;;;1.85;;
11827;SDS011;5971;49.646;8.568;2023-04-15T10:56:03;2.78;;;1.55;;
11827;SDS011;5971;49.646;8.568;2023-04-15T10:59:05;2.90;;;1.42;;
11827;SDS011;5971;49.646;8.568;2023-04-15T11:02:07;3.35;;;1.55;;
11827;SDS011;5971;49.646;8.568;2023-04-15T11:05:09;2.03;;;1.15;;
11827;SDS011;5971;49.646;8.568;2023-04-15T11:08:11;1.98;;;1.02;;
11827;SDS011;5971;49.646;8.568;2023-04-15T11:11:13;3.00;;;2.28;;
11827;SDS011;5971;49.646;8.568;2023-04-15T11:14:14;2.22;;;1.20;;
11827;SDS011;5971;49.646;8.568;2023-04-15T11:17:27;2.65;;;1.23;;
11827;SDS011;5971;49.646;8.568;2023-04-15T11:20:29;2.97;;;1.65;;
11827;SDS011;5971;49.646;8.568;2023-04-15T11:26:34;2.75;;;1.30;;
11827;SDS011;5971;49.646;8.568;2023-04-15T11:29:35;2.58;;;1.65;;
11827;SDS011;5971;49.646;8.568;2023-04-15T11:32:40;2.10;;;1.20;;
11827;SDS011;5971;49.646;8.568;2023-04-15T11:35:42;1.90;;;1.00;;
11827;SDS011;5971;49.646;8.568;2023-04-15T11:38:45;2.35;;;1.13;;
11827;SDS011;5971;49.646;8.568;2023-04-15T11:41:47;4.85;;;1.90;;
11827;SDS011;5971;49.646;8.568;2023-04-15T11:44:48;3.35;;;1.30;;
11827;SDS011;5971;49.646;8.568;2023-04-15T11:47:50;2.05;;;1.33;;
11827;SDS011;5971;49.646;8.568;2023-04-15T11:50:55;3.03;;;1.42;;
11827;SDS011;5971;49.646;8.568;2023-04-15T11:53:58;2.63;;;1.88;;
11827;SDS011;5971;49.646;8.568;2023-04-15T11:56:59;3.17;;;1.42;;
11827;SDS011;5971;49.646;8.568;2023-04-15T12:00:02;5.35;;;2.22;;
11827;SDS011;5971;49.646;8.568;2023-04-15T12:09:19;4.47;;;2.10;;
11827;SDS011;5971;49.646;8.568;2023-04-15T12:12:21;3.03;;;1.67;;
11827;SDS011;5971;49.646;8.568;2023-04-15T12:15:24;3.67;;;2.15;;
11827;SDS011;5971;49.646;8.568;2023-04-15T12:18:26;6.07;;;3.53;;
11827;SDS011;5971;49.646;8.568;2023-04-15T12:21:32;4.50;;;2.13;;
11827;SDS011;5971;49.646;8.568;2023-04-15T12:24:35;6.30;;;3.42;;
11827;SDS011;5971;49.646;8.568;2023-04-15T12:27:37;3.08;;;1.95;;
11827;SDS011;5971;49.646;8.568;2023-04-15T12:30:47;4.60;;;2.72;;
11827;SDS011;5971;49.646;8.568;2023-04-15T12:36:50;4.97;;;1.50;;
11827;SDS011;5971;49.646;8.568;2023-04-15T12:39:51;4.05;;;2.20;;
11827;SDS011;5971;49.646;8.568;2023-04-15T12:42:54;2.30;;;1.30;;
11827;SDS011;5971;49.646;8.568;2023-04-15T12:45:57;3.35;;;2.00;;
11827;SDS011;5971;49.646;8.568;2023-04-15T12:48:58;2.92;;;1.67;;
11827;SDS011;5971;49.646;8.568;2023-04-15T12:52:00;2.95;;;1.60;;
11827;SDS011;5971;49.646;8.568;2023-04-15T12:55:01;3.05;;;1.50;;
11827;SDS011;5971;49.646;8.568;2023-04-15T12:58:03;2.85;;;1.67;;
11827;SDS011;5971;49.646;8.568;2023-04-15T13:01:04;3.92;;;1.65;;
11827;SDS011;5971;49.646;8.568;2023-04-15T13:04:06;2.15;;;1.23;;
11827;SDS011;5971;49.646;8.568;2023-04-15T13:07:08;1.90;;;1.15;;
11827;SDS011;5971;49.646;8.568;2023-04-15T13:10:10;1.70;;;1.00;;
11827;SDS011;5971;49.646;8.568;2023-04-15T13:13:11;2.30;;;1.20;;
11827;SDS011;5971;49.646;8.568;2023-04-15T13:16:12;1.77;;;1.00;;
11827;SDS011;5971;49.646;8.568;2023-04-15T13:19:14;2.03;;;0.95;;
11827;SDS011;5971;49.646;8.568;2023-04-15T13:22:15;2.03;;;1.33;;
11827;SDS011;5971;49.646;8.568;2023-04-15T13:25:17;2.63;;;1.33;;
11827;SDS011;5971;49.646;8.568;2023-04-15T13:28:18;3.53;;;1.80;;
11827;SDS011;5971;49.646;8.568;2023-04-15T13:31:23;3.10;;;2.38;;
11827;SDS011;5971;49.646;8.568;2023-04-15T13:34:24;4.57;;;2.58;;
11827;SDS011;5971;49.646;8.568;2023-04-15T13:37:26;2.53;;;1.70;;
11827;SDS011;5971;49.646;8.568;2023-04-15T13:40:28;3.13;;;1.52;;
11827;SDS011;5971;49.646;8.568;2023-04-15T13:43:29;3.25;;;1.75;;
11827;SDS011;5971;49.646;8.568;2023-04-15T13:46:31;2.10;;;1.33;;
11827;SDS011;5971;49.646;8.568;2023-04-15T13:49:33;3.92;;;1.90;;
11827;SDS011;5971;49.646;8.568;2023-04-15T13:52:34;3.63;;;2.50;;
11827;SDS011;5971;49.646;8.568;2023-04-15T13:55:35;3.45;;;1.77;;
11827;SDS011;5971;49.646;8.568;2023-04-15T13:58:39;2.95;;;1.40;;
11827;SDS011;5971;49.646;8.568;2023-04-15T14:01:41;2.58;;;2.15;;
11827;SDS011;5971;49.646;8.568;2023-04-15T14:04:43;3.15;;;1.85;;
11827;SDS011;5971;49.646;8.568;2023-04-15T14:07:45;3.30;;;1.73;;
11827;SDS011;5971;49.646;8.568;2023-04-15T14:10:46;4.90;;;2.40;;
11827;SDS011;5971;49.646;8.568;2023-04-15T14:13:49;3.40;;;1.52;;
11827;SDS011;5971;49.646;8.568;2023-04-15T14:16:51;2.80;;;1.55;;
11827;SDS011;5971;49.646;8.568;2023-04-15T14:19:52;3.78;;;1.60;;
11827;SDS011;5971;49.646;8.568;2023-04-15T14:22:54;2.10;;;1.10;;
11827;SDS011;5971;49.646;8.568;2023-04-15T14:25:55;2.20;;;1.30;;
11827;SDS011;5971;49.646;8.568;2023-04-15T14:28:56;2.85;;;1.35;;
11827;SDS011;5971;49.646;8.568;2023-04-15T14:31:58;2.70;;;1.27;;
11827;SDS011;5971;49.646;8.568;2023-04-15T14:35:12;1.92;;;1.23;;
11827;SDS011;5971;49.646;8.568;2023-04-15T14:38:13;2.22;;;1.10;;
11827;SDS011;5971;49.646;8.568;2023-04-15T14:41:15;2.45;;;1.40;;
11827;SDS011;5971;49.646;8.568;2023-04-15T14:44:17;2.15;;;1.25;;
11827;SDS011;5971;49.646;8.568;2023-04-15T14:47:18;3.85;;;1.23;;
11827;SDS011;5971;49.646;8.568;2023-04-15T14:50:20;1.92;;;1.02;;
11827;SDS011;5971;49.646;8.568;2023-04-15T14:53:21;1.80;;;1.13;;
11827;SDS011;5971;49.646;8.568;2023-04-15T14:56:22;2.20;;;1.33;;
11827;SDS011;5971;49.646;8.568;2023-04-15T14:59:24;2.67;;;1.85;;
11827;SDS011;5971;49.646;8.568;2023-04-15T15:02:25;1.38;;;1.00;;
11827;SDS011;5971;49.646;8.568;2023-04-15T15:05:40;2.17;;;1.30;;
11827;SDS011;5971;49.646;8.568;2023-04-15T15:08:42;2.60;;;2.10;;
11827;SDS011;5971;49.646;8.568;2023-04-15T15:11:43;3.05;;;1.73;;
11827;SDS011;5971;49.646;8.568;2023-04-15T15:14:45;2.10;;;1.20;;
11827;SDS011;5971;49.646;8.568;2023-04-15T15:17:46;2.28;;;1.38;;
11827;SDS011;5971;49.646;8.568;2023-04-15T15:20:47;2.55;;;1.17;;
11827;SDS011;5971;49.646;8.568;2023-04-15T15:23:49;2.45;;;1.85;;
11827;SDS011;5971;49.646;8.568;2023-04-15T15:26:50;1.77;;;1.00;;
11827;SDS011;5971;49.646;8.568;2023-04-15T15:29:52;2.08;;;1.33;;
11827;SDS011;5971;49.646;8.568;2023-04-15T15:32:53;2.10;;;1.30;;
11827;SDS011;5971;49.646;8.568;2023-04-15T15:35:55;2.03;;;1.15;;
11827;SDS011;5971;49.646;8.568;2023-04-15T15:38:57;1.95;;;1.13;;
11827;SDS011;5971;49.646;8.568;2023-04-15T15:42:00;4.22;;;3.90;;
11827;SDS011;5971;49.646;8.568;2023-04-15T15:45:02;2.08;;;1.65;;
11827;SDS011;5971;49.646;8.568;2023-04-15T15:48:03;1.35;;;1.08;;
11827;SDS011;5971;49.646;8.568;2023-04-15T15:51:05;2.60;;;1.67;;
11827;SDS011;5971;49.646;8.568;2023-04-15T15:54:06;1.95;;;1.08;;
11827;SDS011;5971;49.646;8.568;2023-04-15T15:57:08;3.78;;;2.00;;
11827;SDS011;5971;49.646;8.568;2023-04-15T16:00:10;3.42;;;1.45;;
11827;SDS011;5971;49.646;8.568;2023-04-15T16:03:13;2.67;;;1.30;;
11827;SDS011;5971;49.646;8.568;2023-04-15T16:06:15;2.33;;;1.10;;
11827;SDS011;5971;49.646;8.568;2023-04-15T16:09:16;2.85;;;2.10;;
11827;SDS011;5971;49.646;8.568;2023-04-15T16:12:18;2.90;;;1.20;;
11827;SDS011;5971;49.646;8.568;2023-04-15T16:15:19;2.00;;;1.13;;
11827;SDS011;5971;49.646;8.568;2023-04-15T16:18:20;2.30;;;1.42;;
11827;SDS011;5971;49.646;8.568;2023-04-15T16:21:22;2.42;;;1.45;;
11827;SDS011;5971;49.646;8.568;2023-04-15T16:24:25;2.42;;;1.58;;
11827;SDS011;5971;49.646;8.568;2023-04-15T16:27:27;3.00;;;2.20;;
11827;SDS011;5971;49.646;8.568;2023-04-15T16:30:28;3.17;;;2.40;;
11827;SDS011;5971;49.646;8.568;2023-04-15T16:33:30;4.75;;;4.25;;
11827;SDS011;5971;49.646;8.568;2023-04-15T16:36:33;3.33;;;1.73;;
11827;SDS011;5971;49.646;8.568;2023-04-15T16:39:34;3.42;;;2.08;;
11827;SDS011;5971;49.646;8.568;2023-04-15T16:42:35;3.88;;;2.33;;
11827;SDS011;5971;49.646;8.568;2023-04-15T16:45:37;3.88;;;2.08;;
11827;SDS011;5971;49.646;8.568;2023-04-15T16:48:39;4.45;;;3.47;;
11827;SDS011;5971;49.646;8.568;2023-04-15T16:51:40;3.90;;;2.40;;
11827;SDS011;5971;49.646;8.568;2023-04-15T16:54:41;3.47;;;1.98;;
11827;SDS011;5971;49.646;8.568;2023-04-15T16:57:42;3.17;;;2.00;;
11827;SDS011;5971;49.646;8.568;2023-04-15T17:01:03;3.55;;;2.28;;
11827;SDS011;5971;49.646;8.568;2023-04-15T17:04:05;3.17;;;1.65;;
11827;SDS011;5971;49.646;8.568;2023-04-15T17:07:07;3.10;;;1.85;;
11827;SDS011;5971;49.646;8.568;2023-04-15T17:10:11;2.22;;;1.73;;
11827;SDS011;5971;49.646;8.568;2023-04-15T17:13:16;4.00;;;2.25;;
11827;SDS011;5971;49.646;8.568;2023-04-15T17:16:17;3.05;;;2.08;;
11827;SDS011;5971;49.646;8.568;2023-04-15T17:19:18;4.38;;;2.00;;
11827;SDS011;5971;49.646;8.568;2023-04-15T17:22:20;3.45;;;2.35;;
11827;SDS011;5971;49.646;8.568;2023-04-15T17:25:21;3.33;;;2.30;;
11827;SDS011;5971;49.646;8.568;2023-04-15T17:28:22;3.75;;;1.77;;
11827;SDS011;5971;49.646;8.568;2023-04-15T17:31:24;3.45;;;2.45;;
11827;SDS011;5971;49.646;8.568;2023-04-15T17:34:26;2.47;;;2.13;;
11827;SDS011;5971;49.646;8.568;2023-04-15T17:37:48;3.05;;;2.25;;
11827;SDS011;5971;49.646;8.568;2023-04-15T17:40:49;5.32;;;2.60;;
11827;SDS011;5971;49.646;8.568;2023-04-15T17:43:50;4.60;;;2.53;;
11827;SDS011;5971;49.646;8.568;2023-04-15T17:46:52;2.47;;;1.52;;
11827;SDS011;5971;49.646;8.568;2023-04-15T17:49:53;4.63;;;2.28;;
11827;SDS011;5971;49.646;8.568;2023-04-15T17:52:54;3.50;;;2.47;;
11827;SDS011;5971;49.646;8.568;2023-04-15T17:55:56;3.63;;;2.65;;
11827;SDS011;5971;49.646;8.568;2023-04-15T17:58:57;4.60;;;2.83;;
11827;SDS011;5971;49.646;8.568;2023-04-15T18:02:00;4.20;;;2.83;;
11827;SDS011;5971;49.646;8.568;2023-04-15T18:05:02;4.50;;;2.40;;
11827;SDS011;5971;49.646;8.568;2023-04-15T18:08:03;6.20;;;2.42;;
11827;SDS011;5971;49.646;8.568;2023-04-15T18:11:06;3.50;;;2.30;;
11827;SDS011;5971;49.646;8.568;2023-04-15T18:14:07;4.05;;;2.83;;
11827;SDS011;5971;49.646;8.568;2023-04-15T18:17:09;3.63;;;2.47;;
11827;SDS011;5971;49.646;8.568;2023-04-15T18:20:10;4.35;;;2.60;;
11827;SDS011;5971;49.646;8.568;2023-04-15T18:23:13;4.38;;;2.25;;
11827;SDS011;5971;49.646;8.568;2023-04-15T18:26:14;4.13;;;3.30;;
11827;SDS011;5971;49.646;8.568;2023-04-15T18:29:16;3.72;;;1.85;;
11827;SDS011;5971;49.646;8.568;2023-04-15T18:32:18;2.75;;;1.50;;
11827;SDS011;5971;49.646;8.568;2023-04-15T18:35:19;3.17;;;2.03;;
11827;SDS011;5971;49.646;8.568;2023-04-15T18:38:21;2.95;;;1.85;;
11827;SDS011;5971;49.646;8.568;2023-04-15T18:41:22;4.05;;;2.50;;
11827;SDS011;5971;49.646;8.568;2023-04-15T18:44:25;5.22;;;2.92;;
11827;SDS011;5971;49.646;8.568;2023-04-15T18:47:26;5.28;;;3.22;;
11827;SDS011;5971;49.646;8.568;2023-04-15T18:50:28;3.88;;;1.95;;